Yellow Mule RAWS (NWS)

Jump to table bottom
Date/Time Wind Direction Wind Speed knots Wind Gust knots RH % Accumulated Precip Inches Air Temp Fahrenheit
2022-09-26 21:04 SSE 3 5 46 12.9 52
2022-09-26 20:04 NW 4 5 48 12.9 52
2022-09-26 19:04 NNE 3 10 42 12.9 56
2022-09-26 18:04 NNE 5 10 33 12.9 63
2022-09-26 17:04 WSW 5 14 31 12.9 64
2022-09-26 16:04 SW 8 12 28 12.9 64
2022-09-26 15:04 SSE 5 12 27 12.9 65
2022-09-26 14:04 N 4 9 36 12.9 63
2022-09-26 13:04 NNE 6 11 38 12.9 64
2022-09-26 12:04 NNE 3 7 38 12.9 63
2022-09-26 11:04 SSE 4 7 38 12.9 61
2022-09-26 10:04 S 3 6 41 12.9 58
2022-09-26 09:04 SW 3 6 44 12.9 56
2022-09-26 08:04 SW 4 7 45 12.9 52
2022-09-26 07:04 SW 6 7 47 12.9 49
2022-09-26 06:04 SW 6 9 48 12.9 49
2022-09-26 05:04 W 4 5 44 12.9 50
2022-09-26 04:04 W 5 5 45 12.9 50
2022-09-26 03:04 WSW 5 6 43 12.9 51
2022-09-26 02:04 W 3 8 42 12.9 49
2022-09-26 01:04 WNW 5 8 44 12.9 49
2022-09-26 00:04 W 6 9 45 12.9 49
2022-09-25 23:04 WNW 7 10 45 12.9 49
2022-09-25 22:04 WNW 7 8 46 12.9 49
2022-09-25 21:04 NNW 3 8 44 12.9 49
2022-09-25 20:04 W 7 10 40 12.9 50
2022-09-25 19:04 WSW 6 9 39 12.9 53
2022-09-25 18:04 WSW 7 10 33 12.9 57
2022-09-25 17:04 WSW 5 11 34 12.9 59
2022-09-25 16:04 WSW 6 16 36 12.9 60
2022-09-25 15:04 W 5 10 37 12.9 59
2022-09-25 14:04 SW 7 13 39 12.9 58
2022-09-25 13:04 SW 8 12 39 12.9 57
2022-09-25 12:04 SSW 8 11 41 12.9 54
2022-09-25 11:04 S 4 9 48 12.9 52
2022-09-25 10:04 S 6 10 49 12.9 50
2022-09-25 09:04 S 5 10 49 12.9 48
2022-09-25 08:04 SW 7 9 55 12.9 43
2022-09-25 07:04 SW 7 9 57 12.9 42
2022-09-25 06:04 SW 7 10 56 12.9 43
2022-09-25 05:04 SW 8 10 55 12.9 42
2022-09-25 04:04 WSW 7 10 53 12.9 44
2022-09-25 03:04 WSW 8 10 56 12.9 43
2022-09-25 02:04 WSW 8 9 56 12.9 44
2022-09-25 01:04 W 6 9 57 12.9 43
2022-09-25 00:04 W 7 8 55 12.9 43
2022-09-24 23:04 W 4 7 50 12.9 46
2022-09-24 22:04 W 6 8 54 12.9 44
2022-09-24 21:04 WSW 5 7 52 12.9 45
2022-09-24 20:04 SW 5 9 53 12.9 45